createdAt,value
2018-09-21T18:01:02.411Z,4.50
2018-09-21T18:03:31.013Z,6.57
2018-09-21T18:05:59.659Z,3.87
2018-09-21T18:08:28.148Z,9.77
2018-09-21T18:10:56.964Z,6.80
2018-09-21T18:13:25.457Z,5.77
2018-09-21T18:15:54.914Z,4.07
2018-09-21T18:18:23.326Z,7.00
2018-09-21T18:20:51.815Z,7.27
2018-09-21T18:23:21.016Z,6.13
2018-09-21T18:25:49.932Z,4.37
2018-09-21T18:28:18.573Z,5.83
2018-09-21T18:30:47.106Z,5.20
2018-09-21T18:33:16.728Z,5.77
2018-09-21T18:35:45.387Z,5.33
2018-09-21T18:38:14.850Z,4.47
2018-09-21T18:40:43.696Z,8.43
2018-09-21T18:43:12.492Z,9.70
2018-09-21T18:45:41.774Z,5.70
2018-09-21T18:48:10.734Z,5.57
2018-09-21T18:50:39.652Z,4.40
2018-09-21T18:53:08.360Z,4.03
2018-09-21T18:55:38.316Z,5.23
2018-09-21T18:58:07.460Z,10.90
2018-09-21T19:00:36.668Z,4.23
2018-09-21T19:03:05.755Z,5.97
2018-09-21T19:05:35.173Z,6.20
2018-09-21T19:08:04.424Z,6.80
2018-09-21T19:10:33.371Z,5.23
2018-09-21T19:13:02.146Z,7.13
2018-09-21T19:15:31.118Z,3.83
2018-09-21T19:18:17.659Z,6.33
2018-09-21T19:21:03.047Z,8.37
2018-09-21T19:23:36.727Z,4.97
2018-09-21T19:29:09.805Z,7.90
2018-09-21T19:31:40.158Z,6.47
2018-09-21T19:34:16.179Z,6.37
2018-09-21T19:36:51.427Z,6.27
2018-09-21T19:39:25.662Z,6.07
2018-09-21T19:42:03.962Z,7.63
2018-09-21T19:44:37.916Z,7.17
2018-09-21T19:47:15.372Z,9.70
2018-09-21T19:49:48.580Z,6.43
2018-09-21T19:52:24.680Z,7.67
2018-09-21T19:54:59.287Z,6.40
2018-09-21T20:14:44.332Z,12.03
2018-09-21T20:20:27.769Z,13.33
2018-09-21T20:23:00.692Z,7.63
2018-09-21T20:25:36.045Z,8.30
2018-09-21T20:28:13.744Z,9.27
2018-09-21T20:30:55.357Z,7.67
2018-09-21T20:33:31.564Z,9.23
2018-09-21T20:36:00.361Z,6.63
2018-09-21T20:38:29.935Z,9.20
2018-09-21T20:40:59.005Z,9.93
2018-09-21T20:43:27.764Z,8.23
2018-09-21T20:45:57.032Z,8.53
2018-09-21T20:48:25.684Z,9.53
2018-09-21T20:50:54.399Z,8.03
2018-09-21T20:53:25.002Z,8.43
2018-09-21T20:55:54.523Z,10.13
2018-09-21T20:58:23.101Z,10.37
2018-09-21T21:00:51.729Z,9.03
2018-09-21T21:03:21.271Z,9.77
2018-09-21T21:05:49.875Z,8.13
2018-09-21T21:08:18.575Z,8.57
2018-09-21T21:10:47.216Z,7.67
2018-09-21T21:13:16.074Z,9.13
2018-09-21T21:15:44.966Z,9.10
2018-09-21T21:18:13.769Z,7.70
2018-09-21T21:20:42.483Z,10.43
2018-09-21T21:23:11.731Z,11.53
2018-09-21T21:28:08.192Z,11.50
2018-09-21T21:30:37.697Z,13.40
2018-09-21T21:33:07.354Z,10.97
2018-09-21T21:35:36.170Z,8.90
2018-09-21T21:38:04.640Z,11.07
2018-09-21T21:40:33.434Z,8.47
2018-09-21T21:43:02.009Z,9.50
2018-09-21T21:45:30.699Z,9.27
2018-09-21T21:48:00.283Z,8.17
2018-09-21T21:50:29.269Z,11.90
2018-09-21T21:52:58.018Z,9.63
2018-09-21T21:55:27.288Z,10.33
2018-09-21T21:57:55.840Z,12.37
2018-09-21T22:00:28.270Z,11.00
2018-09-21T22:02:56.832Z,11.73
2018-09-21T22:05:25.506Z,10.13
2018-09-21T22:07:54.254Z,11.50
2018-09-21T22:10:22.720Z,10.37
2018-09-21T22:12:56.880Z,12.07
2018-09-21T22:15:25.769Z,11.83
2018-09-21T22:17:54.484Z,15.10
2018-09-21T22:20:22.987Z,9.80
2018-09-21T22:22:52.180Z,13.60
2018-09-21T22:25:20.639Z,9.07
2018-09-21T22:27:49.487Z,9.73
2018-09-21T22:30:17.989Z,10.47
2018-09-21T22:32:46.772Z,11.63
2018-09-21T22:35:15.503Z,12.60
2018-09-21T22:37:44.092Z,15.00
2018-09-21T22:40:12.744Z,11.30
2018-09-21T22:42:41.926Z,13.37
2018-09-21T22:45:10.773Z,10.60
2018-09-21T22:47:39.337Z,12.00
2018-09-21T22:50:07.810Z,9.50
2018-09-21T22:52:36.398Z,11.10
2018-09-21T22:55:05.556Z,12.60
2018-09-21T22:57:34.020Z,9.70
2018-09-21T23:00:02.604Z,16.73
2018-09-21T23:02:31.321Z,10.00
2018-09-21T23:04:59.767Z,14.10
2018-09-21T23:07:28.347Z,13.67
2018-09-21T23:09:56.945Z,11.30
2018-09-21T23:12:25.825Z,16.57
2018-09-21T23:14:54.461Z,11.53
2018-09-21T23:17:23.053Z,9.70
2018-09-21T23:19:51.527Z,13.43
2018-09-21T23:22:21.143Z,12.27
2018-09-21T23:24:49.821Z,11.20
2018-09-21T23:27:18.406Z,11.37
2018-09-21T23:29:46.853Z,15.20
2018-09-21T23:32:16.081Z,9.23
2018-09-21T23:34:44.851Z,12.67
2018-09-21T23:37:13.305Z,9.93
2018-09-21T23:39:41.801Z,12.90
2018-09-21T23:42:10.506Z,13.30
2018-09-21T23:44:39.356Z,12.47
2018-09-21T23:47:08.008Z,11.87
2018-09-21T23:49:36.584Z,7.97
2018-09-21T23:52:05.505Z,12.70
2018-09-21T23:54:34.030Z,12.10
2018-09-21T23:57:10.075Z,14.50
2018-09-21T23:59:38.793Z,19.13
